createdAt,value
2023-02-22T00:01:51.270Z,8.60
2023-02-22T00:05:33.791Z,8.70
2023-02-22T00:09:21.113Z,8.70
2023-02-22T00:13:03.021Z,8.60
2023-02-22T00:16:45.025Z,8.60
2023-02-22T00:20:27.242Z,8.60
2023-02-22T00:24:23.424Z,8.60
2023-02-22T00:28:05.743Z,8.60
2023-02-22T00:31:47.863Z,8.50
2023-02-22T00:35:31.366Z,8.50
2023-02-22T00:39:13.270Z,8.50
2023-02-22T00:42:55.144Z,8.50
2023-02-22T00:46:37.352Z,8.50
2023-02-22T00:50:20.959Z,8.50
2023-02-22T00:54:02.948Z,8.50
2023-02-22T00:57:45.407Z,8.50
2023-02-22T01:01:28.008Z,8.40
2023-02-22T01:05:12.805Z,8.40
2023-02-22T01:08:55.085Z,8.40
2023-02-22T01:12:37.356Z,8.40
2023-02-22T01:16:19.335Z,8.40
2023-02-22T01:20:01.295Z,8.40
2023-02-22T01:23:45.964Z,8.40
2023-02-22T01:27:28.182Z,8.40
2023-02-22T01:31:10.815Z,8.40
2023-02-22T01:34:56.491Z,8.40
2023-02-22T01:38:39.484Z,8.30
2023-02-22T01:42:21.534Z,8.40
2023-02-22T01:46:19.094Z,8.40
2023-02-22T01:50:01.160Z,8.40
2023-02-22T01:53:46.119Z,8.40
2023-02-22T01:57:37.898Z,8.30
2023-02-22T02:01:23.118Z,8.30
2023-02-22T02:05:08.431Z,8.30
2023-02-22T02:09:02.907Z,8.40
2023-02-22T02:12:48.808Z,8.30
2023-02-22T02:16:41.346Z,8.30
2023-02-22T02:20:45.066Z,8.30
2023-02-22T02:24:48.466Z,8.30
2023-02-22T02:28:56.683Z,8.20
2023-02-22T02:32:59.498Z,8.20
2023-02-22T02:37:04.313Z,8.20
2023-02-22T02:41:07.538Z,8.20
2023-02-22T02:44:57.063Z,8.10
2023-02-22T02:48:57.938Z,8.10
2023-02-22T02:52:44.458Z,8.10
2023-02-22T02:56:27.415Z,8.10
2023-02-22T03:00:24.941Z,8.10
2023-02-22T03:04:20.596Z,8.10
2023-02-22T03:08:11.088Z,8.10
2023-02-22T03:12:02.395Z,8.10
2023-02-22T03:15:55.521Z,8.10
2023-02-22T03:19:46.117Z,8.00
2023-02-22T03:23:28.119Z,8.00
2023-02-22T03:27:17.517Z,8.00
2023-02-22T03:31:07.598Z,7.90
2023-02-22T03:34:58.973Z,7.90
2023-02-22T03:38:43.078Z,7.90
2023-02-22T03:42:32.204Z,7.80
2023-02-22T03:46:15.509Z,7.80
2023-02-22T03:50:07.058Z,7.90
2023-02-22T03:53:49.274Z,7.80
2023-02-22T03:57:38.298Z,7.80
2023-02-22T04:01:23.908Z,7.80
2023-02-22T04:05:06.334Z,7.80
2023-02-22T04:08:48.348Z,7.80
2023-02-22T04:12:30.386Z,7.80
2023-02-22T04:16:12.478Z,7.80
2023-02-22T04:19:55.079Z,7.80
2023-02-22T04:23:37.060Z,7.80
2023-02-22T04:27:19.200Z,7.80
2023-02-22T04:31:01.250Z,7.80
2023-02-22T04:34:43.328Z,7.80
2023-02-22T04:38:28.653Z,7.80
2023-02-22T04:42:13.257Z,7.80
2023-02-22T04:45:55.469Z,7.80
2023-02-22T04:49:39.073Z,7.80
2023-02-22T04:53:21.331Z,7.80
2023-02-22T04:57:03.539Z,7.70
2023-02-22T05:00:45.688Z,7.70
2023-02-22T05:04:27.765Z,7.70
2023-02-22T05:08:12.221Z,7.70
2023-02-22T05:11:54.210Z,7.70
2023-02-22T05:15:36.164Z,7.60
2023-02-22T05:19:18.160Z,7.70
2023-02-22T05:23:01.612Z,7.60
2023-02-22T05:26:45.301Z,7.60
2023-02-22T05:30:34.343Z,7.60
2023-02-22T05:34:19.167Z,7.60
2023-02-22T05:38:03.260Z,7.70
2023-02-22T05:41:45.437Z,7.70
2023-02-22T05:45:28.233Z,7.80
2023-02-22T05:49:10.395Z,7.80
2023-02-22T05:52:53.187Z,7.80
2023-02-22T05:56:36.508Z,7.80
2023-02-22T06:00:28.147Z,7.80
2023-02-22T06:04:10.148Z,7.80
2023-02-22T06:07:52.389Z,7.80
2023-02-22T06:11:34.374Z,7.80
2023-02-22T06:15:17.685Z,7.80
2023-02-22T06:19:00.770Z,7.80
2023-02-22T06:22:43.035Z,7.70
2023-02-22T06:26:25.119Z,7.80
2023-02-22T06:30:08.096Z,7.80
2023-02-22T06:33:50.476Z,7.70
2023-02-22T06:37:32.497Z,7.70
2023-02-22T06:41:15.945Z,7.70
2023-02-22T06:44:58.130Z,7.70
2023-02-22T06:48:40.655Z,7.70
2023-02-22T06:52:23.346Z,7.70
2023-02-22T06:56:05.929Z,7.60
2023-02-22T06:59:48.011Z,7.70
2023-02-22T07:03:30.025Z,7.70
2023-02-22T07:07:12.093Z,7.70
2023-02-22T07:10:54.297Z,7.70
2023-02-22T07:14:36.335Z,7.70
2023-02-22T07:18:18.277Z,7.80
2023-02-22T07:22:00.311Z,7.80
2023-02-22T07:25:42.634Z,7.80
2023-02-22T07:29:24.558Z,7.80
2023-02-22T07:33:09.753Z,7.80
2023-02-22T07:36:54.332Z,7.80
2023-02-22T07:40:38.254Z,7.80
2023-02-22T07:44:20.220Z,7.80
2023-02-22T07:48:33.406Z,7.80
2023-02-22T07:52:15.420Z,7.80
2023-02-22T07:56:27.679Z,7.80
2023-02-22T08:00:10.948Z,7.80
2023-02-22T08:04:39.612Z,7.80
2023-02-22T08:09:06.919Z,7.90
2023-02-22T08:21:44.950Z,8.10
2023-02-22T08:26:00.795Z,8.20
2023-02-22T08:38:30.057Z,8.60
2023-02-22T08:46:33.379Z,8.80
2023-02-22T08:50:54.062Z,8.80
2023-02-22T09:03:14.148Z,9.10
2023-02-22T09:34:55.888Z,10.30
2023-02-22T10:16:39.999Z,10.40
2023-02-22T10:21:00.520Z,10.50
2023-02-22T10:42:25.268Z,11.10
2023-02-22T10:55:59.160Z,11.30
2023-02-22T11:04:54.845Z,11.10
2023-02-22T11:13:57.410Z,11.30
2023-02-22T11:41:02.279Z,11.50
2023-02-22T11:50:04.126Z,11.50
2023-02-22T11:59:01.351Z,11.60
2023-02-22T12:12:38.574Z,11.60
2023-02-22T12:17:08.418Z,11.60
2023-02-22T12:45:17.417Z,11.00
2023-02-22T13:12:21.341Z,11.90
2023-02-22T13:21:21.087Z,11.60
2023-02-22T13:25:51.614Z,11.50
2023-02-22T13:30:15.969Z,11.50
2023-02-22T13:43:54.654Z,11.30
2023-02-22T13:52:54.547Z,11.40
2023-02-22T16:42:58.541Z,9.90
2023-02-22T17:12:08.290Z,9.50
2023-02-22T17:15:58.649Z,9.00
2023-02-22T17:24:43.287Z,7.70
2023-02-22T17:32:37.444Z,7.50
2023-02-22T17:41:01.546Z,7.50
2023-02-22T18:41:26.686Z,7.30
2023-02-22T18:45:08.927Z,7.30
2023-02-22T18:48:54.519Z,7.20
2023-02-22T18:57:31.375Z,7.10
2023-02-22T19:01:19.154Z,7.00
2023-02-22T19:05:02.483Z,7.00
2023-02-22T19:08:46.263Z,7.00
2023-02-22T19:12:28.533Z,7.00
2023-02-22T19:16:58.686Z,7.00
2023-02-22T19:24:22.676Z,7.00
2023-02-22T19:28:04.863Z,7.00
2023-02-22T19:31:51.299Z,7.00
2023-02-22T19:40:03.868Z,6.90
2023-02-22T19:43:58.933Z,6.90
2023-02-22T19:47:41.195Z,6.80
2023-02-22T19:51:28.062Z,6.90
2023-02-22T19:55:12.761Z,6.90
2023-02-22T19:58:56.977Z,6.90
2023-02-22T20:02:42.356Z,6.90
2023-02-22T20:06:28.241Z,6.90
2023-02-22T20:10:10.301Z,6.90
2023-02-22T20:13:52.716Z,6.90
2023-02-22T20:17:34.735Z,6.90
2023-02-22T20:21:24.505Z,6.90
2023-02-22T20:25:06.691Z,6.80
2023-02-22T20:28:49.709Z,6.80
2023-02-22T20:32:32.508Z,6.80
2023-02-22T20:36:17.513Z,6.80
2023-02-22T20:40:00.118Z,6.80
2023-02-22T20:43:42.397Z,6.70
2023-02-22T20:47:24.443Z,6.70
2023-02-22T20:51:08.238Z,6.70
2023-02-22T20:54:50.237Z,6.60
2023-02-22T20:58:32.504Z,6.60
2023-02-22T21:02:14.561Z,6.60
2023-02-22T21:05:56.547Z,6.60
2023-02-22T21:09:38.623Z,6.50
2023-02-22T21:13:20.570Z,6.50
2023-02-22T21:17:04.681Z,6.40
2023-02-22T21:20:48.531Z,6.40
2023-02-22T21:24:30.662Z,6.40
2023-02-22T21:28:12.754Z,6.40
2023-02-22T21:31:55.830Z,6.30
2023-02-22T21:35:40.367Z,6.30
2023-02-22T21:39:22.818Z,6.20
2023-02-22T21:43:10.757Z,6.20
2023-02-22T21:46:52.761Z,6.20
2023-02-22T21:50:37.857Z,6.20
2023-02-22T21:54:20.698Z,6.10
2023-02-22T21:58:03.329Z,6.10
2023-02-22T22:01:47.881Z,6.10
2023-02-22T22:05:35.592Z,6.20
2023-02-22T22:09:18.410Z,6.10
2023-02-22T22:13:00.807Z,6.10
2023-02-22T22:16:43.432Z,6.10
2023-02-22T22:20:25.427Z,6.10
2023-02-22T22:24:08.847Z,6.10
2023-02-22T22:27:51.386Z,6.10
2023-02-22T22:31:33.489Z,6.10
2023-02-22T22:35:20.597Z,6.20
2023-02-22T22:39:05.147Z,6.30
2023-02-22T22:42:47.467Z,6.30
2023-02-22T22:46:29.419Z,6.30
2023-02-22T22:50:16.922Z,6.30
2023-02-22T22:53:59.367Z,6.30
2023-02-22T22:57:42.353Z,6.40
2023-02-22T23:01:28.047Z,6.40
2023-02-22T23:05:10.252Z,6.40
2023-02-22T23:09:14.220Z,6.40
2023-02-22T23:12:56.670Z,6.40
2023-02-22T23:16:40.043Z,6.40
2023-02-22T23:20:26.487Z,6.50
2023-02-22T23:24:08.464Z,6.40
2023-02-22T23:27:51.399Z,6.40
2023-02-22T23:31:33.428Z,6.30
2023-02-22T23:35:16.339Z,6.30
2023-02-22T23:38:58.225Z,6.20
2023-02-22T23:42:40.162Z,6.10
2023-02-22T23:46:22.054Z,6.00
2023-02-22T23:50:13.591Z,5.90
2023-02-22T23:53:56.966Z,5.90
2023-02-22T23:57:43.256Z,5.80
